W.p. Scott — WDJ2782 — position and weather

sailwx.info

Track history (hours):
 
Tides and Currents Weather Stations Pressure Air Temp Water Temp Dewpoint Dewpoint Depression Visibility Wind Speed Wind Dir Waves Ship Positions

W.p. Scott

Owner: MOBRO Marine, Inc., Green Cove Springs, FL. More information available from US FCC via Universal Licensing System and Coast Guard Vessel Documentation Center.

Last reported at 2017-Sep-26 22:38 UTC. Time now 2017-Oct-17 06:18 UTC.
Position N 27°01' W 080°06'.
Warning: this ship's position is 20 days out of date.

Length 13 m.

Type: Tug. MMSI: 367761670.

Date/timePositionNaut miles runAvg speedWind from/ knotsBaromVisibWave heightAir tempDewpointWater temp
2017-Sep-26 22:38N 27°01' W 080°06'1 6.5
2017-Sep-26 22:30N 27°00' W 080°06'3 5.7
2017-Sep-26 21:58N 26°58' W 080°05'2 3.8
2017-Sep-26 21:30N 26°56' W 080°05'3 6.4
2017-Sep-26 21:00N 26°53' W 080°04'0 0.0
2017-Sep-26 08:06N 26°52' W 080°04'1 5.7
2017-Sep-26 07:57N 26°53' W 080°04'2 5.0
2017-Sep-26 07:30N 26°55' W 080°05'2 3.1
2017-Sep-26 06:59N 26°57' W 080°05'3 5.3
2017-Sep-26 06:30N 26°59' W 080°05'  
2017-Sep-19 19:29N 27°01' W 080°06'2 4.8
2017-Sep-19 19:00N 26°59' W 080°05'2 4.3
2017-Sep-19 18:30N 26°57' W 080°05'2 4.0
2017-Sep-19 18:01N 26°55' W 080°05'2 4.8
2017-Sep-19 17:29N 26°53' W 080°04'0 0.0
2017-Sep-19 12:40N 26°53' W 080°04'1 4.9
2017-Sep-19 12:28N 26°54' W 080°04'3 5.3
2017-Sep-19 12:00N 26°56' W 080°05'2 3.2
2017-Sep-19 11:30N 26°58' W 080°05'3 4.8
2017-Sep-19 10:58N 27°00' W 080°06'  
Track history (hours):
 
Tides and Currents Weather Stations Pressure Air Temp Water Temp Dewpoint Dewpoint Depression Visibility Wind Speed Wind Dir Waves Ship Positions

W.p. Scott

Owner: MOBRO Marine, Inc., Green Cove Springs, FL. More information available from US FCC via Universal Licensing System and Coast Guard Vessel Documentation Center.

Last reported at 2017-Sep-26 22:38 UTC. Time now 2017-Oct-17 06:18 UTC.
Position N 27°01' W 080°06'.
Warning: this ship's position is 20 days out of date.

Length 13 m.

Type: Tug. MMSI: 367761670.

Date/timePositionNaut miles runAvg speedWind from/ knotsBaromVisibWave heightAir tempDewpointWater temp
2017-Sep-26 22:38N 27°01' W 080°06'1 6.5
2017-Sep-26 22:30N 27°00' W 080°06'3 5.7
2017-Sep-26 21:58N 26°58' W 080°05'2 3.8
2017-Sep-26 21:30N 26°56' W 080°05'3 6.4
2017-Sep-26 21:00N 26°53' W 080°04'0 0.0
2017-Sep-26 08:06N 26°52' W 080°04'1 5.7
2017-Sep-26 07:57N 26°53' W 080°04'2 5.0
2017-Sep-26 07:30N 26°55' W 080°05'2 3.1
2017-Sep-26 06:59N 26°57' W 080°05'3 5.3
2017-Sep-26 06:30N 26°59' W 080°05'  
2017-Sep-19 19:29N 27°01' W 080°06'2 4.8
2017-Sep-19 19:00N 26°59' W 080°05'2 4.3
2017-Sep-19 18:30N 26°57' W 080°05'2 4.0
2017-Sep-19 18:01N 26°55' W 080°05'2 4.8
2017-Sep-19 17:29N 26°53' W 080°04'0 0.0
2017-Sep-19 12:40N 26°53' W 080°04'1 4.9
2017-Sep-19 12:28N 26°54' W 080°04'3 5.3
2017-Sep-19 12:00N 26°56' W 080°05'2 3.2
2017-Sep-19 11:30N 26°58' W 080°05'3 4.8
2017-Sep-19 10:58N 27°00' W 080°06'  

Dump ship's entire track history